Time;durP1;ratioP1;P1;durP2;ratioP2;P2;SDS_P1;SDS_P2;PMS_P1;PMS_P2;Temp;Humidity;BMP_temperature;BMP_pressure;BME280_temperature;BME280_humidity;BME280_pressure;Samples;Min_cycle;Max_cycle;Signal;HPM_P1;HPM_P2
2023/06/29 00:01:55;;;;;;;15.32;6.63;;;18.70;99.90;;;;;;5091723;28;20040;-63
2023/06/29 00:04:25;;;;;;;17.23;7.93;;;18.70;99.90;;;;;;5091119;28;20531;-63
2023/06/29 00:06:54;;;;;;;16.55;8.00;;;18.70;99.90;;;;;;5090918;28;20534;-64
2023/06/29 00:09:22;;;;;;;17.88;7.57;;;18.70;99.90;;;;;;5090185;28;20127;-64
2023/06/29 00:11:48;;;;;;;16.73;8.18;;;18.70;99.90;;;;;;5092047;28;20051;-64
2023/06/29 00:14:13;;;;;;;17.98;8.45;;;18.70;99.90;;;;;;5090822;28;20032;-63
2023/06/29 00:16:39;;;;;;;18.13;8.73;;;18.70;99.90;;;;;;5089945;28;20051;-64
2023/06/29 00:19:07;;;;;;;17.00;8.52;;;18.60;99.90;;;;;;5089526;28;20119;-63
2023/06/29 00:21:33;;;;;;;17.60;7.82;;;18.60;99.90;;;;;;5091360;28;20058;-64
2023/06/29 00:23:59;;;;;;;15.02;8.02;;;18.60;99.90;;;;;;5090642;28;20044;-64
2023/06/29 00:26:29;;;;;;;17.58;7.85;;;18.60;99.90;;;;;;5092004;28;20503;-64
2023/06/29 00:28:56;;;;;;;15.00;7.68;;;18.60;99.90;;;;;;5089895;28;20051;-64
2023/06/29 00:31:24;;;;;;;18.65;8.25;;;18.50;99.90;;;;;;5073522;28;20032;-64
2023/06/29 00:33:50;;;;;;;18.58;8.65;;;18.50;99.90;;;;;;5073480;28;20162;-64
2023/06/29 00:36:16;;;;;;;16.20;8.82;;;18.60;99.90;;;;;;5089859;28;20090;-64
2023/06/29 00:38:42;;;;;;;23.65;8.88;;;18.50;99.90;;;;;;5073250;28;20067;-64
2023/06/29 00:41:08;;;;;;;20.55;8.40;;;18.50;99.90;;;;;;5091419;28;20039;-63
2023/06/29 00:43:34;;;;;;;16.75;6.38;;;18.50;99.90;;;;;;5089560;28;20079;-63
2023/06/29 00:46:02;;;;;;;13.23;7.97;;;18.50;99.90;;;;;;5090379;28;20139;-63
2023/06/29 00:48:28;;;;;;;19.60;8.90;;;18.50;99.90;;;;;;5080563;28;20047;-63
2023/06/29 00:50:54;;;;;;;18.15;8.65;;;18.60;99.90;;;;;;5069079;28;20040;-63
2023/06/29 00:53:19;;;;;;;13.75;7.57;;;18.50;99.90;;;;;;5070574;28;20048;-63
2023/06/29 00:55:46;;;;;;;13.75;7.85;;;18.60;99.90;;;;;;5070883;28;20044;-63
2023/06/29 00:58:11;;;;;;;18.40;7.22;;;18.50;99.90;;;;;;5069022;28;20512;-63
2023/06/29 01:00:37;;;;;;;11.98;7.47;;;18.50;99.90;;;;;;5087223;28;20040;-64
2023/06/29 01:03:03;;;;;;;17.63;7.72;;;18.50;99.90;;;;;;5089921;28;20040;-64
2023/06/29 01:05:34;;;;;;;17.60;7.57;;;18.50;99.90;;;;;;5090384;28;20048;-64
2023/06/29 01:08:22;;;;;;;21.92;8.35;;;18.50;99.90;;;;;;5091222;28;20384;-64
2023/06/29 01:10:49;;;;;;;15.68;6.47;;;18.50;99.90;;;;;;5090423;28;20044;-64
2023/06/29 01:13:18;;;;;;;18.33;7.53;;;18.50;99.90;;;;;;5089342;28;20079;-63
2023/06/29 01:15:46;;;;;;;15.23;7.03;;;18.50;99.90;;;;;;5090956;28;20036;-63
2023/06/29 01:18:13;;;;;;;17.10;8.38;;;18.40;99.90;;;;;;5090155;28;20032;-64
2023/06/29 01:20:39;;;;;;;16.00;7.57;;;18.50;99.90;;;;;;5090678;28;20046;-64
2023/06/29 01:23:10;;;;;;;18.48;7.63;;;18.50;99.90;;;;;;5089723;28;20047;-64
2023/06/29 01:25:37;;;;;;;15.77;7.38;;;18.40;99.90;;;;;;5088797;28;20481;-63
2023/06/29 01:28:08;;;;;;;19.83;8.07;;;18.40;99.90;;;;;;5089612;28;20101;-63
2023/06/29 01:30:39;;;;;;;13.68;7.13;;;18.40;99.90;;;;;;5089099;28;20040;-64
2023/06/29 01:33:07;;;;;;;17.33;7.43;;;18.40;99.90;;;;;;5089018;28;20468;-63
2023/06/29 01:35:33;;;;;;;17.02;6.68;;;18.40;99.90;;;;;;5072459;28;20164;-63
2023/06/29 01:38:06;;;;;;;14.18;6.80;;;18.40;99.90;;;;;;5089683;28;20142;-63
2023/06/29 01:40:34;;;;;;;18.25;8.20;;;18.50;99.90;;;;;;5088632;28;20044;-63
2023/06/29 01:43:01;;;;;;;13.50;8.10;;;18.40;99.90;;;;;;5089237;28;20032;-63
2023/06/29 01:45:28;;;;;;;17.55;7.32;;;18.40;99.90;;;;;;5073020;28;20044;-64
2023/06/29 01:47:55;;;;;;;14.20;7.32;;;18.40;99.90;;;;;;5070165;28;20398;-63
2023/06/29 01:50:21;;;;;;;21.98;9.23;;;18.40;99.90;;;;;;5069087;28;20086;-64
2023/06/29 01:52:48;;;;;;;18.80;8.23;;;18.40;99.90;;;;;;5051361;28;20132;-64
2023/06/29 01:55:15;;;;;;;16.02;7.00;;;18.40;99.90;;;;;;5070309;28;20143;-64
2023/06/29 01:57:40;;;;;;;15.73;7.95;;;18.40;99.90;;;;;;5069077;28;20523;-63
2023/06/29 02:00:08;;;;;;;16.15;7.05;;;18.40;99.90;;;;;;5081377;28;20442;-63
2023/06/29 02:02:34;;;;;;;14.82;7.07;;;18.40;99.90;;;;;;5072327;28;20098;-63
2023/06/29 02:05:00;;;;;;;15.82;6.72;;;18.40;99.90;;;;;;5090199;28;20044;-63
2023/06/29 02:07:26;;;;;;;15.05;6.93;;;18.40;99.90;;;;;;5071568;28;20047;-63
2023/06/29 02:09:52;;;;;;;17.65;7.60;;;18.40;99.90;;;;;;5088925;28;20055;-63
2023/06/29 02:12:18;;;;;;;15.45;6.78;;;18.40;99.90;;;;;;5088796;28;20055;-64
2023/06/29 02:14:44;;;;;;;14.82;7.07;;;18.40;99.90;;;;;;5088369;28;20042;-63
2023/06/29 02:17:10;;;;;;;18.23;8.15;;;18.40;99.90;;;;;;5089010;28;20127;-63
2023/06/29 02:19:36;;;;;;;15.63;7.28;;;18.40;99.90;;;;;;5090217;28;20132;-63
2023/06/29 02:22:01;;;;;;;19.67;7.80;;;18.40;99.90;;;;;;5088545;28;20134;-63
2023/06/29 02:24:28;;;;;;;18.13;7.63;;;18.40;99.90;;;;;;5072191;28;20480;-63
2023/06/29 02:26:54;;;;;;;15.68;7.00;;;18.40;99.90;;;;;;5088753;28;20044;-64
2023/06/29 02:29:20;;;;;;;11.60;5.93;;;18.40;99.90;;;;;;5088429;28;20047;-63
2023/06/29 02:31:45;;;;;;;14.27;6.13;;;18.40;99.90;;;;;;5090120;28;20123;-64
2023/06/29 02:34:11;;;;;;;13.65;5.85;;;18.40;99.90;;;;;;5088842;28;20040;-63
2023/06/29 02:36:37;;;;;;;13.95;6.65;;;18.40;99.90;;;;;;5088200;28;20040;-63
2023/06/29 02:39:04;;;;;;;11.38;6.70;;;18.40;99.90;;;;;;5090041;28;20036;-63
2023/06/29 02:41:30;;;;;;;13.65;6.03;;;18.40;99.90;;;;;;5075129;28;20178;-63
2023/06/29 02:43:56;;;;;;;14.93;8.10;;;18.40;99.90;;;;;;5071756;28;20139;-63
2023/06/29 02:46:22;;;;;;;12.25;5.82;;;18.40;99.90;;;;;;5073496;28;20113;-63
2023/06/29 02:48:47;;;;;;;15.60;6.47;;;18.40;99.90;;;;;;5071769;28;20461;-62
2023/06/29 02:51:14;;;;;;;10.63;5.80;;;18.40;99.90;;;;;;5073217;28;20362;-64
2023/06/29 02:53:39;;;;;;;13.50;5.00;;;18.40;99.90;;;;;;5073098;28;20048;-64
2023/06/29 02:56:05;;;;;;;13.07;5.13;;;18.40;99.90;;;;;;5071617;28;20385;-63
2023/06/29 02:58:31;;;;;;;15.63;5.68;;;18.40;99.90;;;;;;5073150;28;20445;-63
2023/06/29 03:00:57;;;;;;;15.27;6.50;;;18.30;99.90;;;;;;5093661;28;20040;-63
2023/06/29 03:03:23;;;;;;;16.85;5.43;;;18.30;99.90;;;;;;5091540;28;20377;-64
2023/06/29 03:05:48;;;;;;;11.55;5.65;;;18.40;99.90;;;;;;5093368;28;20039;-63
2023/06/29 03:08:16;;;;;;;14.15;5.95;;;18.30;99.90;;;;;;5074484;28;20420;-64
2023/06/29 03:10:41;;;;;;;12.95;6.07;;;18.40;99.90;;;;;;5072232;28;20124;-63
2023/06/29 03:13:07;;;;;;;15.38;6.63;;;18.40;99.90;;;;;;5071885;28;20079;-63
2023/06/29 03:15:33;;;;;;;9.13;4.70;;;18.40;99.90;;;;;;5072825;28;20762;-64
2023/06/29 03:17:59;;;;;;;12.88;5.30;;;18.40;99.90;;;;;;5071151;28;20033;-63
2023/06/29 03:20:25;;;;;;;10.27;5.30;;;18.30;99.90;;;;;;5071620;28;20036;-63
2023/06/29 03:22:51;;;;;;;9.60;5.95;;;18.30;99.90;;;;;;5072810;28;20040;-63
2023/06/29 03:25:17;;;;;;;15.75;6.50;;;18.30;99.90;;;;;;5072107;28;20044;-63
2023/06/29 03:27:42;;;;;;;12.80;5.45;;;18.30;99.90;;;;;;5071610;28;20036;-63
2023/06/29 03:30:08;;;;;;;16.02;6.13;;;18.30;99.90;;;;;;5071641;28;20665;-63
2023/06/29 03:32:34;;;;;;;9.38;5.53;;;18.30;99.90;;;;;;5053912;28;20040;-63
2023/06/29 03:35:00;;;;;;;9.77;4.47;;;18.30;99.90;;;;;;5054826;28;20067;-62
2023/06/29 03:37:26;;;;;;;14.02;5.47;;;18.40;99.90;;;;;;5070949;28;20362;-63
2023/06/29 03:39:52;;;;;;;12.25;4.78;;;18.40;99.90;;;;;;5054583;28;20129;-64
2023/06/29 03:42:18;;;;;;;15.80;6.97;;;18.40;99.90;;;;;;5071321;28;20173;-63
2023/06/29 03:44:43;;;;;;;11.07;4.85;;;18.40;99.90;;;;;;5070524;28;20041;-63
2023/06/29 03:47:09;;;;;;;10.10;5.90;;;18.40;99.90;;;;;;5072440;28;20039;-63
2023/06/29 03:49:35;;;;;;;9.80;5.25;;;18.50;99.90;;;;;;5071307;28;20400;-63
2023/06/29 03:52:01;;;;;;;11.43;5.93;;;18.50;99.90;;;;;;5070228;28;20515;-64
2023/06/29 03:54:27;;;;;;;8.50;4.45;;;18.50;99.90;;;;;;5070354;28;20060;-63
2023/06/29 03:56:54;;;;;;;11.65;4.53;;;18.50;99.90;;;;;;5072142;28;20037;-63
2023/06/29 03:59:20;;;;;;;15.68;5.43;;;18.50;99.90;;;;;;5076889;28;20043;-63
2023/06/29 04:01:46;;;;;;;16.80;6.78;;;18.50;99.90;;;;;;5091159;28;20036;-63
2023/06/29 04:04:12;;;;;;;10.20;4.85;;;18.50;99.90;;;;;;5092259;28;20480;-63
2023/06/29 04:06:38;;;;;;;14.38;5.85;;;18.50;99.90;;;;;;5091552;28;20533;-63
2023/06/29 04:09:04;;;;;;;12.50;5.10;;;18.50;99.90;;;;;;5090619;28;20044;-63
2023/06/29 04:11:30;;;;;;;12.73;5.22;;;18.50;99.90;;;;;;5090893;28;20048;-63
2023/06/29 04:13:55;;;;;;;8.07;4.45;;;18.50;99.90;;;;;;5090162;28;20036;-63
2023/06/29 04:16:21;;;;;;;12.85;5.35;;;18.50;99.90;;;;;;5092041;28;20040;-63
2023/06/29 04:18:47;;;;;;;7.82;3.88;;;18.40;99.90;;;;;;5090597;28;20044;-63
2023/06/29 04:21:13;;;;;;;8.70;4.45;;;18.40;99.90;;;;;;5090129;28;20043;-63
2023/06/29 04:23:39;;;;;;;9.70;4.30;;;18.50;99.90;;;;;;5090465;28;20481;-63
2023/06/29 04:26:05;;;;;;;14.18;5.35;;;18.40;99.90;;;;;;5073549;28;20040;-63
2023/06/29 04:28:35;;;;;;;11.32;5.53;;;18.50;99.90;;;;;;5089820;28;20051;-63
2023/06/29 04:31:00;;;;;;;10.32;5.07;;;18.50;99.90;;;;;;5091541;28;20040;-64
2023/06/29 04:33:26;;;;;;;9.75;4.95;;;18.50;99.90;;;;;;5082055;28;20207;-63
2023/06/29 04:35:53;;;;;;;9.82;5.45;;;18.50;99.90;;;;;;5053441;28;20408;-63
2023/06/29 04:38:27;;;;;;;11.70;5.25;;;18.50;99.90;;;;;;5069821;28;20051;-62
2023/06/29 04:40:59;;;;;;;11.20;5.18;;;18.50;99.90;;;;;;5070496;28;20119;-62
2023/06/29 04:43:25;;;;;;;13.73;5.40;;;18.60;99.90;;;;;;5071429;28;20063;-63
2023/06/29 04:45:51;;;;;;;11.23;5.35;;;18.50;99.90;;;;;;5070096;28;20447;-63
2023/06/29 04:48:17;;;;;;;13.63;4.43;;;18.60;99.90;;;;;;5069371;28;20040;-63
2023/06/29 04:50:44;;;;;;;11.45;4.88;;;18.60;99.90;;;;;;5069857;28;20040;-63
2023/06/29 04:53:12;;;;;;;12.30;5.20;;;18.60;99.90;;;;;;5070197;28;20112;-64
2023/06/29 04:55:38;;;;;;;9.27;4.32;;;18.60;99.90;;;;;;5069056;28;20509;-63
2023/06/29 04:58:04;;;;;;;9.48;4.47;;;18.70;99.90;;;;;;5069871;28;20037;-63
2023/06/29 05:00:32;;;;;;;10.73;4.65;;;18.70;99.90;;;;;;5086336;28;20143;-64
2023/06/29 05:02:59;;;;;;;10.88;4.70;;;18.70;99.90;;;;;;5089417;28;20172;-64
2023/06/29 05:05:25;;;;;;;10.05;5.13;;;18.80;99.90;;;;;;5089447;28;20423;-64
2023/06/29 05:07:51;;;;;;;12.63;4.63;;;18.70;99.90;;;;;;5089772;28;20036;-64
2023/06/29 05:10:17;;;;;;;12.52;4.95;;;18.80;99.90;;;;;;5090469;28;20072;-64
2023/06/29 05:12:43;;;;;;;9.68;4.28;;;18.80;99.90;;;;;;5090930;28;20496;-64
2023/06/29 05:15:09;;;;;;;12.50;5.28;;;18.80;99.90;;;;;;5090833;28;20044;-64
2023/06/29 05:17:35;;;;;;;10.55;5.28;;;18.80;99.90;;;;;;5088898;28;20073;-64
2023/06/29 05:20:01;;;;;;;10.65;4.82;;;18.80;99.90;;;;;;5072626;28;20083;-64
2023/06/29 05:22:27;;;;;;;9.90;4.28;;;18.80;99.90;;;;;;5088903;28;20082;-64
2023/06/29 05:24:52;;;;;;;13.55;6.03;;;18.80;99.90;;;;;;5090914;28;20043;-63
2023/06/29 05:27:18;;;;;;;8.20;4.28;;;18.90;99.90;;;;;;5089495;28;20420;-61
2023/06/29 05:29:44;;;;;;;11.45;5.07;;;18.90;99.90;;;;;;5062123;28;20059;-63
2023/06/29 05:32:10;;;;;;;10.30;4.93;;;18.90;99.90;;;;;;5069114;28;20109;-64
2023/06/29 05:34:35;;;;;;;17.52;4.78;;;18.90;99.90;;;;;;5069224;28;20063;-64
2023/06/29 05:37:02;;;;;;;12.50;5.40;;;18.90;99.90;;;;;;5068536;28;20610;-63
2023/06/29 05:39:28;;;;;;;11.80;4.93;;;19.00;99.90;;;;;;5069346;28;20380;-63
2023/06/29 05:41:53;;;;;;;11.40;4.95;;;19.00;99.90;;;;;;5070436;28;20036;-63
2023/06/29 05:44:19;;;;;;;8.70;4.07;;;18.90;99.90;;;;;;5068598;28;20654;-63
2023/06/29 05:46:45;;;;;;;10.13;4.70;;;18.90;99.90;;;;;;5052276;28;20712;-64
2023/06/29 05:49:11;;;;;;;10.48;4.53;;;19.00;99.90;;;;;;5052100;28;20044;-63
2023/06/29 05:51:37;;;;;;;9.45;4.80;;;19.00;99.90;;;;;;5069608;28;20083;-63
2023/06/29 05:54:04;;;;;;;9.90;5.03;;;19.00;99.90;;;;;;5068774;28;20052;-64
2023/06/29 05:56:31;;;;;;;12.23;4.43;;;19.00;99.90;;;;;;5069032;28;20043;-64
2023/06/29 05:58:57;;;;;;;9.73;4.75;;;19.10;99.90;;;;;;5071649;28;20476;-64
2023/06/29 06:01:23;;;;;;;10.90;4.90;;;19.10;99.90;;;;;;5090317;28;20111;-63
2023/06/29 06:03:49;;;;;;;9.80;4.10;;;19.20;99.90;;;;;;5089309;28;20377;-64
2023/06/29 06:06:15;;;;;;;10.95;5.85;;;19.20;99.90;;;;;;5071640;28;20480;-64
2023/06/29 06:08:41;;;;;;;10.13;4.85;;;19.20;99.90;;;;;;5088950;28;20567;-63
2023/06/29 06:11:06;;;;;;;11.95;6.22;;;19.20;99.90;;;;;;5088872;28;20123;-63
2023/06/29 06:13:32;;;;;;;10.57;5.45;;;19.20;99.90;;;;;;5089704;28;20071;-64
2023/06/29 06:15:58;;;;;;;11.07;5.40;;;19.20;99.90;;;;;;5088788;28;20115;-63
2023/06/29 06:18:24;;;;;;;12.40;5.90;;;19.20;99.90;;;;;;5092805;28;20032;-64
2023/06/29 06:20:50;;;;;;;17.75;5.55;;;19.20;99.90;;;;;;5075482;28;20703;-63
2023/06/29 06:23:16;;;;;;;10.98;5.28;;;19.30;99.90;;;;;;5094235;28;20040;-64
2023/06/29 06:25:41;;;;;;;13.50;5.50;;;19.30;99.90;;;;;;5086221;28;20033;-64
2023/06/29 06:28:07;;;;;;;10.55;5.28;;;19.40;99.90;;;;;;5072571;28;20044;-64
2023/06/29 06:30:33;;;;;;;13.50;6.45;;;19.40;99.90;;;;;;5073452;28;20131;-64
2023/06/29 06:33:01;;;;;;;12.52;6.60;;;19.50;99.90;;;;;;5072099;28;20036;-63
2023/06/29 06:35:28;;;;;;;10.73;5.18;;;19.50;99.90;;;;;;5072398;28;20036;-63
2023/06/29 06:37:54;;;;;;;12.60;5.38;;;19.50;99.90;;;;;;5073658;28;20040;-62
2023/06/29 06:40:20;;;;;;;12.57;4.82;;;19.60;99.90;;;;;;5055826;28;20067;-63
2023/06/29 06:42:46;;;;;;;13.52;6.05;;;19.60;99.90;;;;;;5053540;28;20471;-63
2023/06/29 06:45:13;;;;;;;13.38;5.18;;;19.70;99.90;;;;;;5057206;28;20051;-64
2023/06/29 06:47:39;;;;;;;11.50;5.28;;;19.70;99.90;;;;;;5051616;28;20060;-63
2023/06/29 06:50:06;;;;;;;13.20;6.15;;;19.60;99.90;;;;;;5052116;28;20045;-64
2023/06/29 06:52:32;;;;;;;14.85;6.18;;;19.70;99.90;;;;;;5035185;28;20401;-62
2023/06/29 06:54:58;;;;;;;13.38;6.03;;;19.70;99.90;;;;;;5036681;28;20055;-64
2023/06/29 06:57:25;;;;;;;13.15;4.95;;;19.70;99.90;;;;;;5059103;28;20680;-64
2023/06/29 06:59:50;;;;;;;14.00;6.28;;;19.70;99.90;;;;;;5083909;28;20090;-62
2023/06/29 07:02:16;;;;;;;14.07;5.45;;;19.70;99.90;;;;;;5091691;28;20036;-62
2023/06/29 07:04:42;;;;;;;14.07;6.13;;;19.70;99.90;;;;;;5066570;28;20449;-63
2023/06/29 07:07:08;;;;;;;14.60;5.32;;;19.80;99.90;;;;;;5072990;28;20036;-63
2023/06/29 07:09:35;;;;;;;17.35;6.93;;;19.80;99.90;;;;;;5071050;28;20041;-63
2023/06/29 07:12:01;;;;;;;13.35;6.15;;;19.90;99.90;;;;;;5054847;28;20036;-63
2023/06/29 07:14:27;;;;;;;12.02;5.80;;;19.90;99.90;;;;;;5072011;28;20056;-64
2023/06/29 07:16:53;;;;;;;15.35;5.75;;;20.00;99.90;;;;;;5069898;28;20542;-63
2023/06/29 07:19:18;;;;;;;16.88;6.55;;;20.10;99.90;;;;;;5067965;28;20455;-63
2023/06/29 07:21:44;;;;;;;12.25;5.60;;;20.20;99.90;;;;;;5070907;28;20060;-63
2023/06/29 07:24:10;;;;;;;9.57;4.93;;;20.20;99.90;;;;;;5054676;28;20048;-63
2023/06/29 07:26:37;;;;;;;12.88;5.97;;;20.30;99.90;;;;;;5060125;28;20052;-62
2023/06/29 07:29:06;;;;;;;13.32;5.80;;;20.40;99.90;;;;;;5051430;28;20362;-63
2023/06/29 07:31:33;;;;;;;13.50;7.00;;;20.50;99.90;;;;;;5051405;28;20033;-64
2023/06/29 07:33:58;;;;;;;12.13;5.68;;;20.50;99.90;;;;;;5051355;28;20083;-63
2023/06/29 07:36:26;;;;;;;11.82;6.13;;;20.50;99.90;;;;;;5063217;28;20121;-63
2023/06/29 07:38:52;;;;;;;14.10;6.70;;;20.50;99.90;;;;;;5071518;28;20384;-63
2023/06/29 07:41:19;;;;;;;13.80;6.53;;;20.60;99.90;;;;;;5072557;28;20170;-62
2023/06/29 07:43:53;;;;;;;13.02;7.28;;;20.70;99.90;;;;;;5068831;28;20080;-62
2023/06/29 07:46:19;;;;;;;17.80;6.75;;;20.70;99.90;;;;;;5072555;28;20402;-63
2023/06/29 07:48:46;;;;;;;15.30;7.55;;;20.70;99.90;;;;;;5071159;28;20174;-63
2023/06/29 07:51:12;;;;;;;13.70;6.53;;;20.70;99.90;;;;;;5070345;28;20040;-64
2023/06/29 07:53:38;;;;;;;12.77;6.50;;;20.70;99.90;;;;;;5070653;28;20051;-63
2023/06/29 07:56:05;;;;;;;17.35;6.63;;;20.80;99.90;;;;;;5072153;28;20100;-63
2023/06/29 07:58:31;;;;;;;16.40;6.40;;;20.80;99.90;;;;;;5053755;28;20124;-63
2023/06/29 08:00:58;;;;;;;13.20;5.63;;;20.80;99.90;;;;;;5072269;28;20584;-63
2023/06/29 08:03:24;;;;;;;20.55;8.05;;;20.80;99.90;;;;;;5070746;28;20033;-64
2023/06/29 08:05:52;;;;;;;13.02;6.93;;;20.80;99.90;;;;;;5069825;28;20472;-64
2023/06/29 08:08:18;;;;;;;12.27;6.13;;;20.80;99.90;;;;;;5071768;28;20579;-63
2023/06/29 08:10:44;;;;;;;18.58;7.45;;;20.80;99.90;;;;;;5070849;28;20411;-64
2023/06/29 08:13:10;;;;;;;12.70;6.10;;;20.70;99.90;;;;;;5070539;28;20040;-64
2023/06/29 08:15:36;;;;;;;13.23;6.28;;;20.70;99.90;;;;;;5069447;28;20078;-62
2023/06/29 08:18:02;;;;;;;11.93;6.13;;;20.60;99.90;;;;;;5068452;28;20125;-64
2023/06/29 08:20:28;;;;;;;17.42;6.57;;;20.60;99.90;;;;;;5070849;28;20109;-64
2023/06/29 08:22:54;;;;;;;16.10;6.43;;;20.50;99.90;;;;;;5069303;28;20040;-64
2023/06/29 08:25:22;;;;;;;14.50;5.47;;;20.50;99.90;;;;;;5068790;28;20052;-64
2023/06/29 08:27:49;;;;;;;18.77;6.45;;;20.40;99.90;;;;;;5069075;28;20044;-64
2023/06/29 08:30:15;;;;;;;13.27;6.32;;;20.40;99.90;;;;;;5069024;28;20048;-64
2023/06/29 08:32:43;;;;;;;17.58;6.30;;;20.30;99.90;;;;;;5069385;28;20489;-64
2023/06/29 08:35:09;;;;;;;11.45;5.53;;;20.30;99.90;;;;;;5070196;28;20076;-63
2023/06/29 08:37:34;;;;;;;14.10;6.75;;;20.30;99.90;;;;;;5070177;28;20040;-64
2023/06/29 08:40:00;;;;;;;12.70;6.30;;;20.30;99.90;;;;;;5056778;28;20044;-64
2023/06/29 08:42:27;;;;;;;14.57;6.10;;;20.30;99.90;;;;;;5050210;28;20036;-64
2023/06/29 08:44:53;;;;;;;14.70;5.40;;;20.40;99.90;;;;;;5032309;28;20043;-64
2023/06/29 08:47:19;;;;;;;10.27;5.32;;;20.40;99.90;;;;;;5048159;28;20080;-64
2023/06/29 08:49:46;;;;;;;13.68;5.70;;;20.50;99.90;;;;;;5048559;28;20041;-64
2023/06/29 08:52:25;;;;;;;13.57;6.45;;;20.60;99.90;;;;;;5049537;28;20048;-64
2023/06/29 08:54:55;;;;;;;15.75;6.40;;;20.60;99.90;;;;;;5048083;28;20052;-64
2023/06/29 08:57:21;;;;;;;13.93;5.45;;;20.60;99.90;;;;;;5048386;28;20076;-64
2023/06/29 08:59:49;;;;;;;13.18;5.53;;;20.60;99.90;;;;;;5068801;28;20044;-64
2023/06/29 09:02:16;;;;;;;11.98;5.53;;;20.60;99.90;;;;;;5089757;28;20533;-64
2023/06/29 09:04:44;;;;;;;13.90;6.82;;;20.60;99.90;;;;;;5088394;28;20043;-64
2023/06/29 09:07:10;;;;;;;12.25;5.32;;;20.70;99.90;;;;;;5088059;28;20040;-64
2023/06/29 09:09:36;;;;;;;10.48;5.47;;;20.70;99.90;;;;;;5088350;28;20500;-63
2023/06/29 09:12:02;;;;;;;17.88;6.43;;;20.60;99.90;;;;;;5089702;28;20137;-64
2023/06/29 09:14:28;;;;;;;16.08;6.18;;;20.60;99.90;;;;;;5081475;28;20127;-64
2023/06/29 09:17:01;;;;;;;14.95;6.45;;;20.50;99.90;;;;;;5067968;28;20202;-63
2023/06/29 09:19:28;;;;;;;14.90;6.90;;;20.50;99.90;;;;;;5068102;28;20097;-64
2023/06/29 09:21:54;;;;;;;18.80;7.20;;;20.50;99.90;;;;;;5051002;28;20532;-64
2023/06/29 09:24:21;;;;;;;16.48;7.95;;;20.50;99.90;;;;;;5068022;28;20040;-64
2023/06/29 09:26:53;;;;;;;17.60;7.60;;;20.50;99.90;;;;;;5069057;28;20261;-63
2023/06/29 09:29:19;;;;;;;14.63;5.80;;;20.50;99.90;;;;;;5068453;28;20040;-64
2023/06/29 09:31:58;;;;;;;15.25;6.88;;;20.50;99.90;;;;;;5068953;28;20081;-64
2023/06/29 09:34:26;;;;;;;19.10;7.18;;;20.50;99.90;;;;;;5067824;28;20579;-64
2023/06/29 09:36:52;;;;;;;12.43;5.35;;;20.50;99.90;;;;;;5067990;28;20033;-64
2023/06/29 09:39:19;;;;;;;13.75;7.47;;;20.60;99.90;;;;;;5067953;28;20044;-64
2023/06/29 09:41:50;;;;;;;13.88;6.40;;;20.70;99.90;;;;;;5068332;28;20040;-64
2023/06/29 09:44:22;;;;;;;15.38;7.07;;;20.70;99.90;;;;;;5051194;28;20137;-65
2023/06/29 09:46:53;;;;;;;16.27;6.57;;;20.80;99.90;;;;;;5067873;28;20478;-63
2023/06/29 09:49:19;;;;;;;15.45;7.32;;;20.90;99.90;;;;;;5066989;28;20053;-64
2023/06/29 09:51:45;;;;;;;18.10;7.88;;;21.00;99.90;;;;;;5068521;28;20068;-63
2023/06/29 09:54:14;;;;;;;15.98;7.28;;;21.00;99.90;;;;;;5068568;28;20060;-63
2023/06/29 09:56:41;;;;;;;17.42;7.30;;;21.00;99.90;;;;;;5066843;28;20083;-64
2023/06/29 09:59:10;;;;;;;16.20;7.25;;;21.00;99.90;;;;;;5072383;28;20036;-62
2023/06/29 10:01:43;;;;;;;16.08;6.88;;;21.00;99.90;;;;;;5087618;28;20056;-63
2023/06/29 10:04:09;;;;;;;13.45;7.03;;;20.90;99.90;;;;;;5070569;28;20040;-63
2023/06/29 10:06:42;;;;;;;15.27;7.43;;;20.90;99.90;;;;;;5087791;28;20105;-64
2023/06/29 10:09:09;;;;;;;19.67;6.90;;;21.00;99.90;;;;;;5087602;28;20047;-64
2023/06/29 10:11:36;;;;;;;17.08;6.97;;;20.90;99.90;;;;;;5055533;28;20102;-63
2023/06/29 10:14:04;;;;;;;17.20;6.85;;;20.90;99.90;;;;;;5068512;28;20541;-64
2023/06/29 10:16:39;;;;;;;17.95;8.07;;;20.90;99.90;;;;;;5068067;28;20068;-63
2023/06/29 10:19:19;;;;;;;13.88;7.30;;;20.80;99.90;;;;;;5067543;28;20033;-64
2023/06/29 10:21:48;;;;;;;13.68;6.05;;;20.70;99.90;;;;;;5067411;28;20115;-64
2023/06/29 10:24:19;;;;;;;14.05;7.00;;;20.70;99.90;;;;;;5066928;28;20044;-64
2023/06/29 10:26:47;;;;;;;15.75;7.95;;;20.60;99.90;;;;;;5067186;28;20044;-64
2023/06/29 10:29:13;;;;;;;16.77;6.95;;;20.60;99.90;;;;;;5068622;28;20040;-64
2023/06/29 10:31:47;;;;;;;19.45;7.53;;;20.60;99.90;;;;;;5066474;28;20048;-63
2023/06/29 10:34:13;;;;;;;14.07;6.45;;;20.60;99.90;;;;;;5067132;28;20036;-64
2023/06/29 10:36:49;;;;;;;16.90;6.90;;;20.70;99.90;;;;;;5066891;28;20033;-63
2023/06/29 10:39:36;;;;;;;18.33;8.07;;;20.80;99.90;;;;;;5066812;28;20072;-64
2023/06/29 10:42:07;;;;;;;14.40;6.38;;;20.90;99.90;;;;;;5067097;28;20040;-64
2023/06/29 10:44:34;;;;;;;18.52;6.65;;;21.10;99.90;;;;;;5067765;28;20123;-64
2023/06/29 10:47:01;;;;;;;16.02;7.28;;;21.20;99.90;;;;;;5067309;28;20110;-64
2023/06/29 10:49:28;;;;;;;14.48;6.97;;;21.30;99.90;;;;;;5050388;28;20076;-64
2023/06/29 10:52:00;;;;;;;19.77;7.28;;;21.40;99.90;;;;;;5049613;28;20044;-64
2023/06/29 10:54:27;;;;;;;30.33;7.65;;;21.50;99.90;;;;;;5066926;28;20055;-63
2023/06/29 10:57:11;;;;;;;22.00;8.00;;;21.70;99.90;;;;;;5068229;28;20048;-63
2023/06/29 10:59:38;;;;;;;16.73;7.53;;;21.80;99.90;;;;;;5076694;28;20519;-63
2023/06/29 11:02:04;;;;;;;21.52;8.40;;;21.90;99.90;;;;;;5070674;28;20492;-64
2023/06/29 11:04:30;;;;;;;15.25;7.20;;;21.90;99.90;;;;;;5089618;28;20047;-63
2023/06/29 11:06:56;;;;;;;19.08;7.53;;;21.90;99.90;;;;;;5082937;28;20040;-64
2023/06/29 11:09:22;;;;;;;20.85;8.27;;;22.00;99.90;;;;;;5070618;28;20052;-64
2023/06/29 11:11:48;;;;;;;17.95;7.10;;;22.10;99.90;;;;;;5070245;28;20033;-63
2023/06/29 11:14:15;;;;;;;17.70;7.95;;;22.10;99.90;;;;;;5070178;28;20127;-64
2023/06/29 11:16:41;;;;;;;17.30;8.50;;;22.10;99.90;;;;;;5071845;28;20063;-64
2023/06/29 11:19:07;;;;;;;19.42;8.10;;;22.20;99.90;;;;;;5070405;28;20032;-64
2023/06/29 11:21:33;;;;;;;16.33;8.00;;;22.30;99.90;;;;;;5071091;28;20055;-65
2023/06/29 11:23:59;;;;;;;19.02;7.90;;;22.50;99.90;;;;;;5070392;28;20041;-65
2023/06/29 11:26:28;;;;;;;16.52;7.05;;;22.70;99.90;;;;;;5070242;28;20125;-65
2023/06/29 11:28:54;;;;;;;25.33;8.65;;;22.90;99.90;;;;;;5071758;28;20051;-65
2023/06/29 11:31:20;;;;;;;20.85;8.48;;;23.20;99.90;;;;;;5070387;28;20459;-65
2023/06/29 11:33:51;;;;;;;23.45;9.70;;;23.50;99.90;;;;;;5071036;28;20082;-65
2023/06/29 11:36:31;;;;;;;19.35;9.10;;;23.80;99.90;;;;;;5053647;28;20398;-65
2023/06/29 11:39:08;;;;;;;17.77;7.47;;;23.90;99.90;;;;;;5070867;28;20032;-65
2023/06/29 11:41:38;;;;;;;19.35;7.25;;;23.80;99.90;;;;;;5032730;28;20037;-65
2023/06/29 11:44:05;;;;;;;21.08;7.60;;;23.70;99.90;;;;;;5035037;28;20511;-65
2023/06/29 11:46:36;;;;;;;18.25;7.72;;;23.60;99.90;;;;;;5051346;28;20037;-65
2023/06/29 11:49:04;;;;;;;19.15;8.50;;;23.60;99.90;;;;;;5049520;28;20033;-65
2023/06/29 11:51:38;;;;;;;18.38;8.13;;;23.60;99.90;;;;;;5033207;28;20113;-65
2023/06/29 11:54:05;;;;;;;19.27;7.68;;;23.50;99.90;;;;;;5049527;28;20045;-65
2023/06/29 11:56:38;;;;;;;17.45;7.93;;;23.60;99.90;;;;;;5049015;28;20342;-65
2023/06/29 11:59:06;;;;;;;17.60;9.52;;;23.70;99.90;;;;;;5059922;28;20115;-65
2023/06/29 12:01:32;;;;;;;15.60;7.47;;;23.70;99.90;;;;;;5089285;28;20488;-65
2023/06/29 12:03:58;;;;;;;17.00;8.02;;;23.80;99.90;;;;;;5059082;28;20149;-64
2023/06/29 12:06:25;;;;;;;16.88;7.85;;;24.00;99.90;;;;;;5070479;28;20132;-65
2023/06/29 12:08:51;;;;;;;19.05;8.30;;;24.40;99.90;;;;;;5070053;28;20097;-65
2023/06/29 12:11:19;;;;;;;17.95;7.47;;;24.60;99.90;;;;;;5053922;28;20540;-65
2023/06/29 12:13:45;;;;;;;22.10;8.60;;;24.80;99.90;;;;;;5070347;28;20151;-65
2023/06/29 12:16:11;;;;;;;17.65;8.20;;;25.00;99.90;;;;;;5069650;28;20076;-65
2023/06/29 12:18:38;;;;;;;16.70;8.13;;;25.20;99.90;;;;;;5070251;28;20068;-65
2023/06/29 12:21:04;;;;;;;16.27;7.20;;;25.40;99.90;;;;;;5069984;28;20047;-65
2023/06/29 12:23:29;;;;;;;17.70;7.53;;;25.60;99.90;;;;;;5070023;28;20033;-65
2023/06/29 12:25:55;;;;;;;20.42;7.80;;;25.70;99.90;;;;;;5071626;28;20063;-66
2023/06/29 12:28:21;;;;;;;15.70;6.45;;;25.60;99.90;;;;;;5070204;28;20041;-65
2023/06/29 12:30:47;;;;;;;24.65;8.57;;;25.60;99.90;;;;;;5052717;28;20062;-64
2023/06/29 12:33:13;;;;;;;19.50;9.30;;;25.50;99.90;;;;;;5070218;28;20044;-65
2023/06/29 12:35:40;;;;;;;17.35;7.45;;;25.40;99.90;;;;;;5070160;28;20036;-65
2023/06/29 12:38:06;;;;;;;16.30;7.35;;;25.20;99.90;;;;;;5069325;28;20036;-65